»·PEaware :: BLADE41 KSPS-KSPS

BLADE41 :: KSPS-KSPS

FLIGHT INFORMATION

Flight Status: Arrived
Operator: Unknown
More flights by this operator :: More flights under this callsign
Pilot: 80 FTW ENJJPT (22981)
Aircraft: BEECH AIRCRAFT T-6A TEXAN
(TEX2)
More flights by this aircraft type
Origin: KSPS Sheppard AFB/Wichita Falls Mu
United States
Destination: KSPS Sheppard AFB/Wichita Falls Mu
United States
More flights between these airports :: More routes between these airports
Route: +S1L
File this flight plan on PilotEdge
Remarks:
Altitude:
(Current/Filed)
0ft
Speed:
(Current/Filed)
0kts
Departed: 29-Jun-20 08:49 AM
Arrived: 29-Jun-20 09:42 AM
Distance/Time
Traveled:
0nm/0:53
Distance/Time
To Go:
Arrived

Flight Plot

Page will automatically refresh every two minutes.

Flight plan parsing failed; only flown route is shown


Map Options




Map Legend


Flown Route
Filed Route
Departure Airport
Arrival Airport
Navaid (VOR, NDB)
Fix

Horizontal Profiles

Position Reports

Time Latitude Longitude Heading Altitude Ground
Speed
29-Jun-20 08:38 33.998839 -98.503647 334 1023ft 0kts
29-Jun-20 08:39 33.998839 -98.503647 334 1023ft 0kts
29-Jun-20 08:40 33.998895 -98.503674 338 1023ft 1kts
29-Jun-20 08:41 33.998959 -98.503704 338 1023ft 0kts
29-Jun-20 08:42 33.999028 -98.503737 339 1023ft 0kts
29-Jun-20 08:43 34.002729 -98.502884 39 1023ft 17kts
29-Jun-20 08:44 34.007297 -98.501786 27 1023ft 22kts
29-Jun-20 08:45 34.009812 -98.497130 69 1023ft 11kts
29-Jun-20 08:46 34.010894 -98.494600 144 1023ft 0kts
29-Jun-20 08:47 34.010761 -98.494357 77 1023ft 5kts
29-Jun-20 08:48 34.006325 -98.490952 159 1069ft 99kts
29-Jun-20 08:49 33.982897 -98.457138 69 1920ft 194kts
29-Jun-20 08:50 34.029897 -98.461876 342 1999ft 219kts
29-Jun-20 08:51 34.062672 -98.499126 251 1972ft 209kts
29-Jun-20 08:52 34.014283 -98.493039 148 4009ft 162kts
29-Jun-20 08:53 34.013760 -98.479662 339 2313ft 124kts
29-Jun-20 08:54 34.002852 -98.489223 159 1268ft 98kts
29-Jun-20 08:55 34.006743 -98.477060 333 1991ft 127kts
29-Jun-20 08:56 34.014954 -98.495037 160 1130ft 120kts
29-Jun-20 08:57 33.979233 -98.474757 126 1665ft 203kts
29-Jun-20 08:58 33.973558 -98.416939 20 4840ft 194kts
29-Jun-20 08:59 34.023792 -98.450766 329 7695ft 205kts
29-Jun-20 09:00 34.078476 -98.486028 346 10697ft 203kts
29-Jun-20 09:01 34.134431 -98.501626 356 13630ft 228kts
29-Jun-20 09:02 34.134431 -98.501626 356 13630ft 228kts
29-Jun-20 09:03 34.134431 -98.501626 356 13630ft 228kts
29-Jun-20 09:04 34.145470 -98.502731 352 13746ft 242kts
29-Jun-20 09:05 34.197435 -98.569575 310 13719ft 300kts
29-Jun-20 09:06 34.237852 -98.659160 298 14231ft 287kts
29-Jun-20 09:07 34.268100 -98.755372 294 14064ft 297kts
29-Jun-20 09:08 34.303524 -98.847842 297 14025ft 295kts
29-Jun-20 09:09 34.344333 -98.936904 302 14071ft 295kts
29-Jun-20 09:10 34.404432 -98.996034 6 12382ft 289kts
29-Jun-20 09:11 34.426679 -98.996980 36 10473ft 268kts
29-Jun-20 09:12 34.400036 -99.028035 336 11192ft 236kts
29-Jun-20 09:13 34.443644 -99.032217 3 10921ft 265kts
29-Jun-20 09:14 34.467401 -99.032013 185 10929ft 229kts
29-Jun-20 09:15 34.481093 -99.029100 179 12749ft 194kts
29-Jun-20 09:16 34.445930 -99.026570 15 10297ft 236kts
29-Jun-20 09:17 34.401637 -98.999387 103 11583ft 191kts
29-Jun-20 09:18 34.357096 -98.976997 178 10805ft 240kts
29-Jun-20 09:19 34.382189 -98.970667 1 11994ft 201kts
29-Jun-20 09:20 34.378642 -98.959506 240 12688ft 167kts
29-Jun-20 09:21 34.390114 -98.930055 357 10723ft 196kts
29-Jun-20 09:22 34.383456 -98.924293 265 10314ft 220kts
29-Jun-20 09:23 34.375123 -98.977110 106 9662ft 236kts
29-Jun-20 09:25 34.362277 -98.973816 246 10512ft 174kts
29-Jun-20 09:26 34.328692 -98.966565 336 9300ft 221kts
29-Jun-20 09:27 34.381762 -98.971352 293 12347ft 129kts
29-Jun-20 09:28 34.370964 -98.953403 179 10523ft 235kts
29-Jun-20 09:29 34.355653 -98.965025 114 9797ft 242kts
29-Jun-20 09:30 34.324756 -98.880990 117 6815ft 277kts
29-Jun-20 09:31 34.288879 -98.797331 119 5645ft 252kts
29-Jun-20 09:32 34.260368 -98.712892 113 5540ft 261kts
29-Jun-20 09:33 34.245374 -98.623148 93 5684ft 259kts
29-Jun-20 09:34 34.235824 -98.564479 258 5471ft 178kts
29-Jun-20 09:35 34.220952 -98.602498 136 3423ft 200kts
29-Jun-20 09:36 34.195567 -98.534026 119 3421ft 230kts
29-Jun-20 09:37 34.148785 -98.513534 196 1619ft 154kts
29-Jun-20 09:38 34.107533 -98.525636 197 1554ft 143kts
29-Jun-20 09:39 34.071498 -98.522370 158 1588ft 115kts
29-Jun-20 09:40 34.040571 -98.507524 157 1548ft 110kts
29-Jun-20 09:41 34.010442 -98.492922 158 1028ft 97kts
29-Jun-20 09:42 33.995902 -98.486397 223 1023ft 16kts
29-Jun-20 09:42 33.994623 -98.487558 198 1023ft 0kts

Navigation Log

Ident Type
Flight plan parsing failed, navigation log unavailable